createdAt,value
2023-04-15T19:31:00.422Z,21.98
2023-04-15T19:33:31.132Z,28.33
2023-04-15T19:35:59.256Z,16.55
2023-04-15T19:38:27.193Z,19.02
2023-04-15T19:40:55.200Z,21.20
2023-04-15T19:43:23.104Z,20.83
2023-04-15T19:45:52.900Z,20.77
2023-04-15T19:48:23.703Z,23.40
2023-04-15T19:50:51.668Z,52.88
2023-04-15T19:53:19.613Z,66.13
2023-04-15T19:55:48.407Z,37.95
2023-04-15T19:58:16.570Z,23.83
2023-04-15T20:00:44.489Z,19.23
2023-04-15T20:03:12.696Z,18.08
2023-04-15T20:05:42.014Z,22.95
2023-04-15T20:08:10.287Z,18.52
2023-04-15T20:10:38.485Z,15.10
2023-04-15T20:13:06.563Z,13.13
2023-04-15T20:15:34.578Z,17.48
2023-04-15T20:18:02.614Z,25.15
2023-04-15T20:20:30.553Z,16.25
2023-04-15T20:22:59.835Z,14.43
2023-04-15T20:25:27.869Z,11.70
2023-04-15T20:27:56.765Z,12.73
2023-04-15T20:30:25.517Z,13.73
2023-04-15T20:32:53.422Z,12.60
2023-04-15T20:35:21.457Z,11.30
2023-04-15T20:37:52.626Z,12.73
2023-04-15T20:40:22.883Z,12.18
2023-04-15T20:42:50.794Z,11.85
2023-04-15T20:45:18.907Z,11.18
2023-04-15T20:47:46.839Z,13.35
2023-04-15T20:50:14.962Z,14.80
2023-04-15T20:52:42.922Z,15.35
2023-04-15T20:55:11.177Z,11.68
2023-04-15T20:57:40.682Z,10.27
2023-04-15T21:00:10.932Z,12.10
2023-04-15T21:02:39.066Z,11.20
2023-04-15T21:05:07.870Z,10.60
2023-04-15T21:07:35.797Z,14.50
2023-04-15T21:10:03.769Z,13.10
2023-04-15T21:12:31.981Z,10.75
2023-04-15T21:15:01.672Z,10.82
2023-04-15T21:17:29.698Z,10.88
2023-04-15T21:19:57.678Z,13.25
2023-04-15T21:22:26.250Z,11.38
2023-04-15T21:24:54.124Z,14.65
2023-04-15T21:27:22.010Z,12.52
2023-04-15T21:29:49.970Z,13.13
2023-04-15T21:32:19.385Z,13.50
2023-04-15T21:34:47.412Z,14.98
2023-04-15T21:37:15.313Z,16.88
2023-04-15T21:39:43.252Z,13.40
2023-04-15T21:42:11.204Z,14.73
2023-04-15T21:44:39.203Z,12.88
2023-04-15T21:47:07.190Z,16.85
2023-04-15T21:49:36.644Z,18.23
2023-04-15T21:52:06.245Z,15.88
2023-04-15T21:54:34.281Z,16.45
2023-04-15T21:57:02.231Z,17.23
2023-04-15T21:59:30.156Z,14.18
2023-04-15T22:01:58.287Z,15.52
2023-04-15T22:04:26.533Z,19.70
2023-04-15T22:07:01.466Z,18.35
2023-04-15T22:09:29.375Z,16.08
2023-04-15T22:11:59.270Z,15.60
2023-04-15T22:14:28.286Z,17.55
2023-04-15T22:16:56.670Z,17.10
2023-04-15T22:19:25.864Z,18.15
2023-04-15T22:21:55.222Z,18.20
2023-04-15T22:24:38.914Z,18.70
2023-04-15T22:27:08.324Z,17.10
2023-04-15T22:29:36.340Z,19.80
2023-04-15T22:32:04.298Z,16.95
2023-04-15T22:34:32.226Z,16.20
2023-04-15T22:37:01.586Z,22.70
2023-04-15T22:39:29.534Z,21.05
2023-04-15T22:41:57.754Z,18.27
2023-04-15T22:44:25.750Z,19.02
2023-04-15T22:46:53.720Z,20.42
2023-04-15T22:49:21.571Z,21.95
2023-04-15T22:51:49.512Z,20.38
2023-04-15T22:54:18.743Z,18.45
2023-04-15T22:56:46.630Z,15.95
2023-04-15T22:59:14.494Z,16.08
2023-04-15T23:01:42.462Z,17.92
2023-04-15T23:04:10.959Z,19.90
2023-04-15T23:06:52.222Z,17.83
2023-04-15T23:09:22.410Z,20.13
2023-04-15T23:11:50.533Z,21.83
2023-04-15T23:14:18.420Z,28.58
2023-04-15T23:16:46.394Z,17.45
2023-04-15T23:19:14.294Z,23.90
2023-04-15T23:21:42.315Z,21.25
2023-04-15T23:24:10.416Z,21.70
2023-04-15T23:26:39.749Z,16.75
2023-04-15T23:29:10.957Z,20.95
2023-04-15T23:31:39.090Z,18.92
2023-04-15T23:34:07.178Z,22.17
2023-04-15T23:36:35.136Z,27.15
2023-04-15T23:39:03.062Z,20.83
2023-04-15T23:41:31.036Z,23.65
2023-04-15T23:44:00.323Z,21.52
2023-04-15T23:46:28.262Z,21.17
2023-04-15T23:48:56.237Z,20.48
2023-04-15T23:51:24.141Z,23.08
2023-04-15T23:53:53.008Z,20.90
2023-04-15T23:56:21.307Z,17.85
2023-04-15T23:58:49.230Z,18.40
